Classifiche di sempre
Migliori tempi personali validi di team tra tutti gli eventi e le stagioni. Ogni team compare una sola volta per divisione.
Cerca per nome e apri la pagina in cui è classificato questo record di divisione.
24,226 team in classifica
| Pos. | Pos. AG | Team | Nazionalità | Categoria età | TempoMiglior tempo | Distacco |
|---|---|---|---|---|---|---|
| 9001 | #3722 | Dustin Needham & Daniel FarrierUSA · M 30-34 · AG #3722 | USA | M 30-34 | 1:07:22 | +18:51 |
| 9002 | #3723 | James JANSEN & Matt JONESNZL · M 30-34 · AG #3723 | NZL | M 30-34 | 1:07:22 | +18:51 |
| 9003 | #3724 | Landon Tong & Chad PriarUSA · M 30-34 · AG #3724 | USA | M 30-34 | 1:07:22 | +18:51 |
| 9004 | -- | Tobias Buhmann & Bastian BuhmannGER · M MU29 | GER | M MU29 | 1:07:22 | +18:51 |
| 9005 | #3725 | Pim Zuidewind & Robert de GrootNED · M 30-34 · AG #3725 | NED | M 30-34 | 1:07:22 | +18:51 |
| 9006 | #3726 | Emmanuel Castaño & Kevan KueterM 30-34 · AG #3726 | -- | M 30-34 | 1:07:22 | +18:51 |
| 9007 | #932 | Jingteng Tsai & Weipang ChiuTPE · M 40-44 · AG #932 | TPE | M 40-44 | 1:07:22 | +18:51 |
| 9008 | #3727 | Guillaume Rouzaud & steven arsicaudFRA · M 30-34 · AG #3727 | FRA | M 30-34 | 1:07:22 | +18:51 |
| 9009 | #3728 | Heichi SUN & Keiyam CHONGHKG · M 30-34 · AG #3728 | HKG | M 30-34 | 1:07:22 | +18:51 |
| 9010 | #1273 | Jacopo Sergio Sofia & Costantino TobaldiITA · M 35-39 · AG #1273 | ITA | M 35-39 | 1:07:23 | +18:52 |
| 9011 | #3729 | Bart Geurts & Pim GeurtsNED · M 30-34 · AG #3729 | NED | M 30-34 | 1:07:23 | +18:52 |
| 9012 | #1274 | Daniel Zeller & Alexander MülfarthGER · M 35-39 · AG #1274 | GER | M 35-39 | 1:07:23 | +18:52 |
| 9013 | #1275 | Scott Rumble & Dylan PorterAUS · M 35-39 · AG #1275 | AUS | M 35-39 | 1:07:23 | +18:52 |
| 9014 | #170 | Scott Cosgrove & Chris AlsopAUS · M 45-49 · AG #170 | AUS | M 45-49 | 1:07:23 | +18:52 |
| 9015 | #1276 | 인성 양 & 창욱 백KOR · M 35-39 · AG #1276 | KOR | M 35-39 | 1:07:23 | +18:52 |
| 9016 | #3730 | Tom Willis & Luke KellyGBR · M 30-34 · AG #3730 | GBR | M 30-34 | 1:07:23 | +18:52 |
| 9017 | #1675 | Steffen Rydland Haukeland & Stein Inge HolstadNOR · M 25-29 · AG #1675 | NOR | M 25-29 | 1:07:23 | +18:52 |
| 9018 | #3733 | Arnoud Tramper & Roy RomboutsNED · M 30-34 · AG #3733 | NED | M 30-34 | 1:07:23 | +18:52 |
| 9019 | -- | Nathan Alarcon & Alexandre ReaFRA · M MU29 | FRA | M MU29 | 1:07:23 | +18:52 |
| 9020 | #3735 | Stephen Kelly & Gerard DevineIRL · M 30-34 · AG #3735 | IRL | M 30-34 | 1:07:23 | +18:52 |
| 9021 | #3736 | Jose Quinonez & Ben MooreUSA · M 30-34 · AG #3736 | USA | M 30-34 | 1:07:23 | +18:52 |
| 9022 | #3737 | Sebastian Carnefeldt & Nicklas IrevångSWE · M 30-34 · AG #3737 | SWE | M 30-34 | 1:07:23 | +18:52 |
| 9023 | #3731 | Mattéo Sénéca-Ferreira & Loïc LemaireM 30-34 · AG #3731 | -- | M 30-34 | 1:07:23 | +18:52 |
| 9024 | #3732 | Artem Natalich & Łukasz OlbrachtPOL · M 30-34 · AG #3732 | POL | M 30-34 | 1:07:23 | +18:52 |
| 9025 | -- | Ollie Wang & Shaun AngSIN · M MU29 | SIN | M MU29 | 1:07:23 | +18:52 |
Pagina 361 di 970